West Hyannisport, MA (02672)

12:35 AM EDT on August 05, 2015 (GMT -0400)
Megan Road | | Change Station
CLOSE
Current Station
Personal Weather Station
Location: Barnstable, MA
Elevation: 56 ft
Nearby Weather Stations

Elev 56 ft 41.66 °N, 70.30 °W | Updated 3 seconds ago

Partly Cloudy
Partly Cloudy
74.5 °F
Feels Like 71 °F
N
0.0
Wind Variable Wind from WSW
Gusts 0.0 mph

Today
High -- | Low -- °F
--% Chance of Precip.
Yesterday
High -- | Low -- °F
Precip. -- in
5:39 AM 7:54 PM
Waning Gibbous, 71% visible
Pressure 29.88 in
Visibility 7.0 miles
Clouds Scattered Clouds 1000 ft
Heat Index 71 °F
Dew Point 74 °F
Humidity 98%
Rainfall 0.00 in
Snow Depth Not available.
UV 0.0 out of 12
Pollen 7.30 out of 12
Air Quality Not available.
Flu Activity Not available.
METAR KHYA 050356Z AUTO 23005KT 7SM SCT010 24/22 A2987 RMK AO2 SLP117 T02390222

More Conditions Fewer Conditions

Pressure 29.88 in
Visibility 7.0 miles
Clouds Scattered Clouds 1000 ft
Heat Index 71 °F
Dew Point 74 °F
Humidity 98%
Rainfall 0.00 in
Snow Depth Not available.
UV 0.0 out of 12
Pollen 7.30 out of 12
Air Quality Not available.
Flu Activity Not available.
METAR KHYA 050356Z AUTO 23005KT 7SM SCT010 24/22 A2987 RMK AO2 SLP117 T02390222

More Conditions Fewer Conditions

10-Day Weather Forecast

×

Almanac

Astronomy

Aug. 05, 2015 Rise Set
Actual Time
Civil Twilight
Nautical Twilight
Astronomical Twilight
Moon
Length of Visible Light
Length of Day
Tomorrow will be .
, % of the Moon is Illuminated

Today's Extremes

State Highs State Lows

Community

WunderPhotos

Upload Photos

1,844,094 photos uploaded!

WunderBlogs® & News

Nearby

Air Quality

  Air Quality AQ Index Pollutant
Not available.

Snow Depth

Station Depth Elevation

Earthquake Activity

City Distance Mag. Time & Date
Minimum magnitude displayed is 2.5.

Coastal Water Temperatures

Place Temperature

Stations

Nearby Weather Stations

Station Location Temp. Windchill Dew Point Humidity Wind Precip. Elev Updated Type